createdAt,value
2023-01-12T00:01:27.582Z,100347.50
2023-01-12T00:03:55.335Z,100345.81
2023-01-12T00:06:23.070Z,100346.78
2023-01-12T00:08:51.127Z,100348.47
2023-01-12T00:11:18.550Z,100348.00
2023-01-12T00:13:45.452Z,100343.72
2023-01-12T00:16:36.825Z,100333.19
2023-01-12T00:19:23.051Z,100349.03
2023-01-12T00:22:12.360Z,100327.88
2023-01-12T00:24:44.558Z,100345.53
2023-01-12T00:27:16.777Z,100338.53
2023-01-12T00:29:43.441Z,100320.88
2023-01-12T00:32:15.823Z,100328.38
2023-01-12T00:34:42.918Z,100330.91
2023-01-12T00:37:09.615Z,100310.34
2023-01-12T00:42:42.005Z,100310.00
2023-01-12T00:45:22.069Z,100292.50
2023-01-12T00:47:48.470Z,100318.41
2023-01-12T00:50:16.526Z,100310.94
2023-01-12T00:52:45.091Z,100322.56
2023-01-12T00:55:11.537Z,100300.06
2023-01-12T00:57:38.101Z,100312.94
2023-01-12T01:00:05.119Z,100294.94
2023-01-12T01:02:31.579Z,100293.81
2023-01-12T01:04:58.086Z,100298.84
2023-01-12T01:07:24.569Z,100295.50
2023-01-12T01:09:51.392Z,100304.72
2023-01-12T01:12:17.859Z,100304.81
2023-01-12T01:14:44.424Z,100298.41
2023-01-12T01:17:10.829Z,100297.94
2023-01-12T01:19:37.548Z,100291.19
2023-01-12T01:22:04.058Z,100291.19
2023-01-12T01:24:30.583Z,100297.81
2023-01-12T01:26:57.073Z,100295.84
2023-01-12T01:29:23.518Z,100301.31
2023-01-12T01:31:49.951Z,100317.78
2023-01-12T01:34:16.422Z,100317.63
2023-01-12T01:36:42.929Z,100323.66
2023-01-12T01:39:09.494Z,100327.53
2023-01-12T01:44:28.892Z,100317.66
2023-01-12T01:47:07.937Z,100306.97
2023-01-12T01:49:39.064Z,100315.53
2023-01-12T01:52:11.675Z,100321.56
2023-01-12T01:54:45.634Z,100328.28
2023-01-12T01:57:13.890Z,100319.44
2023-01-12T01:59:44.720Z,100323.66
2023-01-12T02:02:12.124Z,100313.59
2023-01-12T02:04:38.952Z,100294.03
2023-01-12T02:07:06.962Z,100304.69
2023-01-12T02:09:33.586Z,100314.81
2023-01-12T02:12:18.683Z,100309.63
2023-01-12T02:15:07.542Z,100305.44
2023-01-12T02:17:53.473Z,100321.41
2023-01-12T02:20:49.373Z,100325.94
2023-01-12T02:23:43.965Z,100319.16
2023-01-12T02:26:29.861Z,100310.16
2023-01-12T02:29:44.891Z,100318.56
2023-01-12T02:32:31.285Z,100299.75
2023-01-12T02:35:22.430Z,100308.75
2023-01-12T02:38:03.625Z,100295.56
2023-01-12T02:40:48.024Z,100313.16
2023-01-12T02:43:32.747Z,100303.31
2023-01-12T02:46:11.454Z,100306.69
2023-01-12T02:48:42.205Z,100291.69
2023-01-12T02:51:11.752Z,100282.16
2023-01-12T02:53:47.405Z,100278.34
2023-01-12T02:56:19.630Z,100297.59
2023-01-12T02:58:51.311Z,100282.28
2023-01-12T03:01:20.765Z,100268.25
2023-01-12T03:03:49.754Z,100277.94
2023-01-12T03:06:17.627Z,100284.25
2023-01-12T03:08:47.751Z,100278.91
2023-01-12T03:11:16.570Z,100269.09
2023-01-12T03:13:49.235Z,100282.28
2023-01-12T03:16:20.811Z,100282.13
2023-01-12T03:19:01.500Z,100272.47
2023-01-12T03:21:35.005Z,100283.69
2023-01-12T03:24:25.404Z,100293.34
2023-01-12T03:26:58.750Z,100289.84
2023-01-12T03:29:31.513Z,100269.50
2023-01-12T03:31:59.307Z,100272.47
2023-01-12T03:34:26.365Z,100295.47
2023-01-12T03:37:03.372Z,100296.28
2023-01-12T03:39:47.971Z,100289.19
2023-01-12T03:42:32.956Z,100290.56
2023-01-12T03:45:11.595Z,100284.94
2023-01-12T03:47:43.428Z,100282.94
2023-01-12T03:50:16.561Z,100282.31
2023-01-12T03:52:45.051Z,100280.50
2023-01-12T03:55:15.605Z,100269.97
2023-01-12T03:57:44.744Z,100262.28
2023-01-12T04:00:13.341Z,100265.63
2023-01-12T04:02:42.879Z,100258.63
2023-01-12T04:05:10.261Z,100267.75
2023-01-12T04:07:36.755Z,100258.28
2023-01-12T04:10:03.724Z,100263.25
2023-01-12T04:12:30.202Z,100254.28
2023-01-12T04:14:56.727Z,100248.94
2023-01-12T04:17:25.211Z,100238.44
2023-01-12T04:19:52.214Z,100231.13
2023-01-12T04:22:37.893Z,100226.91
2023-01-12T04:25:04.925Z,100239.25
2023-01-12T04:27:31.347Z,100233.94
2023-01-12T04:29:57.810Z,100233.63
2023-01-12T04:32:24.373Z,100233.94
2023-01-12T04:34:50.849Z,100225.94
2023-01-12T04:37:17.615Z,100224.59
2023-01-12T04:39:44.116Z,100224.06
2023-01-12T04:42:30.476Z,100228.25
2023-01-12T04:44:56.847Z,100210.19
2023-01-12T04:47:23.307Z,100201.66
2023-01-12T04:49:49.738Z,100218.97
2023-01-12T04:52:16.119Z,100209.50
2023-01-12T04:54:42.534Z,100208.34
2023-01-12T04:57:08.904Z,100201.19
2023-01-12T04:59:35.289Z,100201.56
2023-01-12T05:02:01.838Z,100201.72
2023-01-12T05:04:28.376Z,100185.88
2023-01-12T05:06:54.772Z,100172.84
2023-01-12T05:09:39.581Z,100180.94
2023-01-12T05:12:06.312Z,100181.69
2023-01-12T05:14:32.820Z,100152.66
2023-01-12T05:16:59.651Z,100174.53
2023-01-12T05:19:26.032Z,100170.34
2023-01-12T05:21:52.429Z,100171.78
2023-01-12T05:24:18.990Z,100170.16
2023-01-12T05:26:45.391Z,100157.97
2023-01-12T05:29:12.561Z,100154.72
2023-01-12T05:31:39.018Z,100128.84
2023-01-12T05:34:05.444Z,100131.97
2023-01-12T05:36:31.864Z,100133.13
2023-01-12T05:38:58.293Z,100122.63
2023-01-12T05:41:24.942Z,100123.06
2023-01-12T05:43:51.422Z,100110.53
2023-01-12T05:46:17.836Z,100103.22
2023-01-12T05:48:44.458Z,100096.00
2023-01-12T05:51:12.090Z,100096.84
2023-01-12T05:53:38.599Z,100093.78
2023-01-12T05:56:17.191Z,100094.16
2023-01-12T05:58:43.825Z,100083.81
2023-01-12T06:01:10.596Z,100080.94
2023-01-12T06:03:37.439Z,100066.41
2023-01-12T06:06:04.575Z,100066.84
2023-01-12T06:08:31.050Z,100075.81
2023-01-12T06:11:03.789Z,100062.19
2023-01-12T06:13:48.947Z,100060.53
2023-01-12T06:16:15.437Z,100045.38
2023-01-12T06:18:42.022Z,100049.56
2023-01-12T06:21:10.036Z,100047.19
2023-01-12T06:23:36.588Z,100038.66
2023-01-12T06:26:05.656Z,100020.72
2023-01-12T06:28:32.120Z,100032.03
2023-01-12T06:31:00.395Z,100025.19
2023-01-12T06:33:27.945Z,100018.19
2023-01-12T06:35:55.325Z,100015.59
2023-01-12T06:38:23.532Z,100006.25
2023-01-12T06:40:50.052Z,100014.63
2023-01-12T06:43:16.879Z,100005.56
2023-01-12T06:45:43.898Z,99996.66
2023-01-12T06:48:10.517Z,99995.31
2023-01-12T06:50:37.534Z,99997.97
2023-01-12T06:53:06.823Z,99994.47
2023-01-12T06:55:33.487Z,99974.97
2023-01-12T06:58:06.868Z,99976.00
2023-01-12T07:00:33.281Z,99966.84
2023-01-12T07:02:59.732Z,99946.50
2023-01-12T07:05:26.108Z,99950.00
2023-01-12T07:07:59.104Z,99948.03
2023-01-12T07:10:26.166Z,99935.00
2023-01-12T07:12:52.624Z,99927.69
2023-01-12T07:15:19.035Z,99920.34
2023-01-12T07:17:45.471Z,99920.22
2023-01-12T07:20:12.101Z,99916.41
2023-01-12T07:22:39.348Z,99905.59
2023-01-12T07:25:06.237Z,99908.72
2023-01-12T07:27:32.616Z,99901.94
2023-01-12T07:29:59.278Z,99882.06
2023-01-12T07:32:27.331Z,99875.75
2023-01-12T07:34:53.764Z,99872.94
2023-01-12T07:37:20.408Z,99872.56
2023-01-12T07:39:46.939Z,99856.94
2023-01-12T07:42:25.175Z,99861.44
2023-01-12T07:44:52.155Z,99856.63
2023-01-12T07:47:18.891Z,99834.44
2023-01-12T07:49:45.305Z,99846.97
2023-01-12T07:52:12.783Z,99836.78
2023-01-12T07:54:39.188Z,99836.78
2023-01-12T07:57:10.013Z,99836.25
2023-01-12T07:59:36.682Z,99810.28
2023-01-12T08:02:03.986Z,99805.78
2023-01-12T08:04:30.454Z,99829.28
2023-01-12T08:06:57.252Z,99782.63
2023-01-12T08:09:24.076Z,99802.13
2023-01-12T08:11:50.469Z,99788.13
2023-01-12T08:14:27.407Z,99773.28
2023-01-12T08:16:56.430Z,99765.47
2023-01-12T08:19:28.127Z,99795.59
2023-01-12T08:21:58.854Z,99765.16
2023-01-12T08:24:32.119Z,99769.28
2023-01-12T08:27:02.085Z,99775.59
2023-01-12T08:29:42.016Z,99758.31
2023-01-12T08:34:42.464Z,99755.94
2023-01-12T08:37:14.061Z,99765.94
2023-01-12T08:39:40.941Z,99751.63
2023-01-12T08:42:07.492Z,99745.09
2023-01-12T08:44:35.441Z,99746.13
2023-01-12T08:47:03.710Z,99745.28
2023-01-12T08:49:31.320Z,99744.59
2023-01-12T08:51:58.096Z,99730.47
2023-01-12T08:54:25.247Z,99739.47
2023-01-12T08:56:53.796Z,99734.97
2023-01-12T08:59:20.330Z,99739.97
2023-01-12T09:01:47.218Z,99735.16
2023-01-12T09:04:13.686Z,99731.31
2023-01-12T09:06:42.865Z,99744.81
2023-01-12T09:09:12.379Z,99723.50
2023-01-12T09:11:41.913Z,99741.16
2023-01-12T09:14:09.008Z,99738.84
2023-01-12T09:16:35.563Z,99733.00
2023-01-12T09:19:02.132Z,99730.84
2023-01-12T09:21:30.694Z,99731.50
2023-01-12T09:23:57.663Z,99739.84
2023-01-12T09:26:31.919Z,99721.53
2023-01-12T09:28:59.522Z,99727.03
2023-01-12T09:31:27.405Z,99731.53
2023-01-12T09:33:54.579Z,99740.88
2023-01-12T09:36:30.058Z,99749.03
2023-01-12T09:38:56.600Z,99746.03
2023-01-12T09:41:43.927Z,99745.19
2023-01-12T09:44:38.517Z,99734.75
2023-01-12T09:47:10.276Z,99738.56
2023-01-12T09:49:44.316Z,99740.06
2023-01-12T09:52:21.979Z,99734.91
2023-01-12T09:54:51.421Z,99744.25
2023-01-12T09:57:30.509Z,99754.25
2023-01-12T10:00:11.348Z,99748.91
2023-01-12T10:02:41.723Z,99749.91
2023-01-12T10:05:19.753Z,99745.91
2023-01-12T10:07:47.686Z,99740.22
2023-01-12T10:10:15.523Z,99751.06
2023-01-12T10:12:48.304Z,99754.75
2023-01-12T10:15:42.673Z,99746.59
2023-01-12T10:18:25.686Z,99753.72
2023-01-12T10:20:52.922Z,99744.91
2023-01-12T10:23:24.491Z,99747.22
2023-01-12T10:25:59.653Z,99737.38
2023-01-12T10:28:30.136Z,99748.91
2023-01-12T10:30:58.238Z,99755.22
2023-01-12T10:33:33.327Z,99757.22
2023-01-12T10:36:20.481Z,99756.22
2023-01-12T10:38:57.560Z,99752.53
2023-01-12T10:41:26.471Z,99750.53
2023-01-12T10:43:58.723Z,99765.22
2023-01-12T10:46:28.213Z,99735.03
2023-01-12T10:49:29.574Z,99759.19
2023-01-12T10:52:10.584Z,99740.84
2023-01-12T10:54:41.266Z,99750.50
2023-01-12T10:57:22.356Z,99736.34
2023-01-12T11:00:00.059Z,99759.97
2023-01-12T11:02:28.914Z,99737.97
2023-01-12T11:04:55.698Z,99726.94
2023-01-12T11:07:29.002Z,99701.09
2023-01-12T11:10:16.359Z,99749.97
2023-01-12T11:12:55.095Z,99744.47
2023-01-12T11:15:21.818Z,99744.59
2023-01-12T11:18:11.256Z,99739.44
2023-01-12T11:21:02.609Z,99760.78
2023-01-12T11:23:37.224Z,99731.91
2023-01-12T11:26:29.072Z,99745.09
2023-01-12T11:29:02.764Z,99758.88
2023-01-12T11:31:38.293Z,99758.56
2023-01-12T11:34:22.259Z,99765.53
2023-01-12T11:37:00.663Z,99763.34
2023-01-12T11:39:30.311Z,99773.03
2023-01-12T11:42:20.078Z,99772.69
2023-01-12T11:44:46.428Z,99764.31
2023-01-12T11:47:21.239Z,99750.97
2023-01-12T11:50:02.303Z,99768.31
2023-01-12T11:52:29.504Z,99764.44
2023-01-12T11:54:56.148Z,99765.09
2023-01-12T11:57:25.217Z,99772.59
2023-01-12T12:00:13.312Z,99762.25
2023-01-12T12:03:26.103Z,99784.59
2023-01-12T12:06:03.904Z,99766.22
2023-01-12T12:08:33.063Z,99788.09
2023-01-12T12:11:02.977Z,99780.75
2023-01-12T12:13:56.135Z,99761.38
2023-01-12T12:17:04.417Z,99779.22
2023-01-12T12:19:47.567Z,99775.16
2023-01-12T12:22:43.945Z,99780.06
2023-01-12T12:25:30.385Z,99771.66
2023-01-12T12:28:06.244Z,99777.66
2023-01-12T12:30:47.334Z,99779.47
2023-01-12T12:33:32.156Z,99776.81
2023-01-12T12:36:26.532Z,99775.31
2023-01-12T12:39:24.581Z,99785.75
2023-01-12T12:42:38.774Z,99780.56
2023-01-12T12:45:22.413Z,99786.56
2023-01-12T12:47:57.725Z,99781.69
2023-01-12T12:50:48.112Z,99779.84
2023-01-12T12:53:19.903Z,99784.47
2023-01-12T12:55:47.576Z,99790.31
2023-01-12T12:58:23.024Z,99787.09
2023-01-12T13:00:50.955Z,99784.72
2023-01-12T13:03:39.258Z,99780.69
2023-01-12T13:06:28.603Z,99795.72
2023-01-12T13:09:00.942Z,99787.88
2023-01-12T13:11:54.368Z,99794.81
2023-01-12T13:14:38.724Z,99785.50
2023-01-12T13:17:20.215Z,99822.34
2023-01-12T13:19:48.372Z,99811.81
2023-01-12T13:22:41.980Z,99826.78
2023-01-12T13:25:20.689Z,99832.97
2023-01-12T13:27:54.128Z,99830.59
2023-01-12T13:30:26.728Z,99836.25
2023-01-12T13:32:53.466Z,99829.69
2023-01-12T13:35:49.040Z,99836.19
2023-01-12T13:38:34.060Z,99850.69
2023-01-12T13:41:13.629Z,99838.50
2023-01-12T13:43:52.337Z,99850.88
2023-01-12T13:46:23.849Z,99853.38
2023-01-12T13:48:54.485Z,99871.28
2023-01-12T13:51:28.328Z,99877.47
2023-01-12T13:54:15.397Z,99865.19
2023-01-12T13:56:42.908Z,99865.75
2023-01-12T13:59:18.158Z,99873.59
2023-01-12T14:01:47.307Z,99878.31
2023-01-12T14:04:13.886Z,99867.78
2023-01-12T14:06:49.590Z,99870.09
2023-01-12T14:09:29.595Z,99883.47
2023-01-12T14:12:26.577Z,99877.94
2023-01-12T14:15:29.197Z,99879.31
2023-01-12T14:18:09.095Z,99883.66
2023-01-12T14:20:53.542Z,99893.34
2023-01-12T14:23:26.022Z,99893.06
2023-01-12T14:26:12.012Z,99902.94
2023-01-12T14:28:41.331Z,99886.47
2023-01-12T14:31:16.985Z,99900.34
2023-01-12T14:33:50.262Z,99900.34
2023-01-12T14:36:21.747Z,99896.84
2023-01-12T14:38:49.283Z,99894.38
2023-01-12T14:41:38.126Z,99903.06
2023-01-12T14:44:23.987Z,99902.75
2023-01-12T14:46:53.869Z,99916.97
2023-01-12T14:49:32.216Z,99911.59
2023-01-12T14:52:01.600Z,99907.47
2023-01-12T14:54:29.850Z,99910.31
2023-01-12T14:57:18.398Z,99907.81
2023-01-12T14:59:47.185Z,99912.03
2023-01-12T15:02:13.798Z,99906.19
2023-01-12T15:04:55.218Z,99905.91
2023-01-12T15:07:22.897Z,99914.94
2023-01-12T15:10:02.174Z,99896.47
2023-01-12T15:12:28.733Z,99921.63
2023-01-12T15:15:19.245Z,99915.63
2023-01-12T15:18:06.772Z,99921.22
2023-01-12T15:20:58.343Z,99922.88
2023-01-12T15:23:54.148Z,99917.38
2023-01-12T15:26:21.793Z,99911.53
2023-01-12T15:28:49.659Z,99924.56
2023-01-12T15:31:28.435Z,99933.75
2023-01-12T15:33:57.020Z,99902.72
2023-01-12T15:36:25.137Z,99933.31
2023-01-12T15:38:52.233Z,99900.56
2023-01-12T15:41:46.119Z,99885.91
2023-01-12T15:44:15.021Z,99904.75
2023-01-12T15:46:42.987Z,99934.44
2023-01-12T15:49:11.282Z,99925.09
2023-01-12T15:51:38.073Z,99924.63
2023-01-12T15:54:05.021Z,99929.63
2023-01-12T15:56:31.760Z,99925.91
2023-01-12T15:58:58.471Z,99904.13
2023-01-12T16:01:33.696Z,99909.09
2023-01-12T16:04:36.068Z,99921.97
2023-01-12T16:06:47.200Z,99887.75
2023-01-12T16:09:13.911Z,99920.94
2023-01-12T16:11:41.084Z,99918.25
2023-01-12T16:14:08.102Z,99915.03
2023-01-12T16:16:36.155Z,99929.75
2023-01-12T16:19:06.081Z,99926.91
2023-01-12T16:21:33.737Z,99913.19
2023-01-12T16:24:01.215Z,99924.06
2023-01-12T16:26:29.560Z,99922.03
2023-01-12T16:28:57.564Z,99924.72
2023-01-12T16:31:24.045Z,99923.88
2023-01-12T16:33:52.421Z,99916.69
2023-01-12T16:36:19.081Z,99900.50
2023-01-12T16:38:45.530Z,99915.31
2023-01-12T16:41:17.022Z,99911.81
2023-01-12T16:43:43.445Z,99911.81
2023-01-12T16:46:11.219Z,99907.50
2023-01-12T16:48:39.272Z,99898.75
2023-01-12T16:51:17.314Z,99897.41
2023-01-12T16:53:45.025Z,99917.63
2023-01-12T16:56:14.567Z,99896.91
2023-01-12T16:58:47.526Z,99881.50
2023-01-12T17:01:17.335Z,99895.88
2023-01-12T17:03:44.311Z,99891.72
2023-01-12T17:06:13.165Z,99898.91
2023-01-12T17:08:41.510Z,99890.38
2023-01-12T17:11:10.120Z,99893.22
2023-01-12T17:13:37.636Z,99897.56
2023-01-12T17:16:07.415Z,99895.72
2023-01-12T17:18:33.959Z,99890.88
2023-01-12T17:21:07.563Z,99877.16
2023-01-12T17:23:34.081Z,99880.19
2023-01-12T17:26:04.855Z,99875.81
2023-01-12T17:28:34.627Z,99875.50
2023-01-12T17:31:10.912Z,99873.47
2023-01-12T17:33:38.440Z,99863.69
2023-01-12T17:36:06.405Z,99871.50
2023-01-12T17:38:34.666Z,99869.19
2023-01-12T17:41:33.193Z,99842.97
2023-01-12T17:44:02.127Z,99858.84
2023-01-12T17:46:29.856Z,99860.69
2023-01-12T17:49:04.859Z,99856.66
2023-01-12T17:51:31.607Z,99847.66
2023-01-12T17:53:59.301Z,99840.47
2023-01-12T17:56:28.247Z,99832.78
2023-01-12T17:58:55.595Z,99842.44
2023-01-12T18:01:24.140Z,99841.78
2023-01-12T18:03:50.913Z,99836.44
2023-01-12T18:06:25.767Z,99838.47
2023-01-12T18:08:56.174Z,99826.44
2023-01-12T18:11:23.414Z,99826.44
2023-01-12T18:13:49.795Z,99830.25
2023-01-12T18:16:16.568Z,99831.25
2023-01-12T18:18:44.064Z,99832.94
2023-01-12T18:21:16.393Z,99825.75
2023-01-12T18:23:43.580Z,99820.75
2023-01-12T18:26:13.886Z,99828.91
2023-01-12T18:28:40.209Z,99826.50
2023-01-12T18:31:11.116Z,99830.25
2023-01-12T18:33:38.116Z,99829.06
2023-01-12T18:36:15.110Z,99821.56
2023-01-12T18:38:41.859Z,99817.59
2023-01-12T18:41:27.400Z,99826.09
2023-01-12T18:43:54.172Z,99814.38
2023-01-12T18:46:20.596Z,99807.03
2023-01-12T18:48:47.845Z,99807.84
2023-01-12T18:51:33.461Z,99801.34
2023-01-12T18:54:00.400Z,99801.31
2023-01-12T18:56:27.009Z,99800.00
2023-01-12T18:58:53.441Z,99790.97
2023-01-12T19:01:22.676Z,99790.31
2023-01-12T19:03:49.827Z,99782.78
2023-01-12T19:06:38.479Z,99794.66
2023-01-12T19:09:23.595Z,99775.09
2023-01-12T19:11:49.976Z,99777.19
2023-01-12T19:14:34.729Z,99779.31
2023-01-12T19:17:19.665Z,99775.13
2023-01-12T19:19:46.104Z,99777.63
2023-01-12T19:22:31.125Z,99765.84
2023-01-12T19:25:16.064Z,99765.84
2023-01-12T19:28:01.197Z,99775.22
2023-01-12T19:30:27.658Z,99770.69
2023-01-12T19:32:57.569Z,99768.19
2023-01-12T19:35:27.313Z,99758.47
2023-01-12T19:37:53.752Z,99758.63
2023-01-12T19:40:35.071Z,99757.16
2023-01-12T19:43:12.513Z,99756.31
2023-01-12T19:45:41.159Z,99767.00
2023-01-12T19:48:08.197Z,99758.34
2023-01-12T19:50:36.098Z,99755.31
2023-01-12T19:53:03.441Z,99755.31
2023-01-12T19:55:30.606Z,99747.63
2023-01-12T19:57:57.604Z,99755.13
2023-01-12T20:00:25.339Z,99740.94
2023-01-12T20:02:51.902Z,99740.44
2023-01-12T20:05:22.658Z,99737.47
2023-01-12T20:07:50.303Z,99745.53
2023-01-12T20:10:16.747Z,99739.34
2023-01-12T20:12:43.195Z,99748.56
2023-01-12T20:15:10.417Z,99742.03
2023-01-12T20:17:36.924Z,99745.53
2023-01-12T20:20:08.491Z,99740.75
2023-01-12T20:22:35.769Z,99736.03
2023-01-12T20:25:03.522Z,99753.38
2023-01-12T20:27:32.614Z,99741.19
2023-01-12T20:29:59.736Z,99759.09
2023-01-12T20:32:31.493Z,99761.50
2023-01-12T20:35:01.848Z,99763.81
2023-01-12T20:37:28.323Z,99776.81
2023-01-12T20:39:56.317Z,99769.69
2023-01-12T20:42:22.746Z,99779.66
2023-01-12T20:44:49.741Z,99778.81
2023-01-12T20:47:19.057Z,99766.50
2023-01-12T20:49:46.656Z,99779.47
2023-01-12T20:52:13.415Z,99781.16
2023-01-12T20:54:39.960Z,99778.47
2023-01-12T20:57:06.387Z,99786.31
2023-01-12T20:59:32.846Z,99782.31
2023-01-12T21:01:59.503Z,99796.72
2023-01-12T21:04:25.939Z,99796.72
2023-01-12T21:06:52.338Z,99788.69
2023-01-12T21:09:18.805Z,99810.91
2023-01-12T21:11:47.046Z,99821.16
2023-01-12T21:14:13.894Z,99787.09
2023-01-12T21:16:40.338Z,99783.09
2023-01-12T21:19:07.768Z,99806.13
2023-01-12T21:21:34.293Z,99796.78
2023-01-12T21:24:01.132Z,99799.09
2023-01-12T21:26:27.543Z,99800.09
2023-01-12T21:28:54.229Z,99792.56
2023-01-12T21:31:20.664Z,99796.44
2023-01-12T21:33:47.158Z,99784.38
2023-01-12T21:36:14.496Z,99782.41
2023-01-12T21:38:41.041Z,99785.91
2023-01-12T21:41:07.594Z,99783.22
2023-01-12T21:43:34.354Z,99774.38
2023-01-12T21:46:06.079Z,99773.88
2023-01-12T21:48:32.607Z,99781.75
2023-01-12T21:51:06.928Z,99780.91
2023-01-12T21:53:34.586Z,99780.41
2023-01-12T21:56:02.540Z,99777.06
2023-01-12T21:58:30.793Z,99761.53
2023-01-12T22:00:57.485Z,99767.03
2023-01-12T22:03:28.152Z,99772.72
2023-01-12T22:05:55.277Z,99771.38
2023-01-12T22:08:22.263Z,99764.94
2023-01-12T22:10:48.710Z,99775.25
2023-01-12T22:13:17.301Z,99757.91
2023-01-12T22:15:44.941Z,99760.44
2023-01-12T22:18:11.365Z,99765.94
2023-01-12T22:20:38.654Z,99768.88
2023-01-12T22:23:05.071Z,99752.84
2023-01-12T22:25:31.511Z,99766.69
2023-01-12T22:27:57.967Z,99755.16
2023-01-12T22:30:25.204Z,99755.91
2023-01-12T22:32:54.504Z,99750.34
2023-01-12T22:35:21.357Z,99763.53
2023-01-12T22:37:48.033Z,99753.22
2023-01-12T22:40:15.838Z,99754.06
2023-01-12T22:43:00.624Z,99752.66
2023-01-12T22:45:27.045Z,99751.66
2023-01-12T22:47:57.114Z,99749.66
2023-01-12T22:50:24.787Z,99758.84
2023-01-12T22:52:54.981Z,99762.00
2023-01-12T22:55:22.105Z,99749.97
2023-01-12T22:57:48.564Z,99754.34
2023-01-12T23:00:22.531Z,99756.53
2023-01-12T23:03:01.763Z,99752.84
2023-01-12T23:05:32.038Z,99734.97
2023-01-12T23:07:59.265Z,99746.97
2023-01-12T23:10:26.314Z,99751.66
2023-01-12T23:13:11.175Z,99732.13
2023-01-12T23:15:39.180Z,99744.47
2023-01-12T23:18:06.798Z,99745.13
2023-01-12T23:20:35.686Z,99744.66
2023-01-12T23:23:06.335Z,99749.66
2023-01-12T23:25:33.774Z,99751.63
2023-01-12T23:28:00.468Z,99721.72
2023-01-12T23:30:30.991Z,99731.06
2023-01-12T23:33:04.082Z,99731.25
2023-01-12T23:35:39.112Z,99730.22
2023-01-12T23:38:07.483Z,99727.56
2023-01-12T23:40:34.110Z,99730.88
2023-01-12T23:43:01.500Z,99713.28
2023-01-12T23:45:28.093Z,99709.50
2023-01-12T23:47:54.617Z,99702.75
2023-01-12T23:50:21.138Z,99713.63
2023-01-12T23:52:49.880Z,99706.63
2023-01-12T23:55:16.353Z,99709.28
2023-01-12T23:57:42.910Z,99707.44
